createdAt,value
2017-08-20T00:01:06.338Z,71.20
2017-08-20T00:03:33.617Z,70.90
2017-08-20T00:06:01.300Z,71.20
2017-08-20T00:08:28.733Z,71.40
2017-08-20T00:10:55.269Z,70.90
2017-08-20T00:13:22.539Z,71.10
2017-08-20T00:15:49.057Z,71.20
2017-08-20T00:18:15.341Z,71.10
2017-08-20T00:20:42.384Z,70.80
2017-08-20T00:23:09.447Z,70.80
2017-08-20T00:25:36.278Z,70.80
2017-08-20T00:28:03.641Z,70.80
2017-08-20T00:30:30.327Z,71.00
2017-08-20T00:32:56.582Z,70.90
2017-08-20T00:35:24.469Z,70.90
2017-08-20T00:37:51.458Z,71.00
2017-08-20T00:40:17.962Z,71.20
2017-08-20T00:42:44.306Z,71.40
2017-08-20T00:45:12.089Z,71.40
2017-08-20T00:47:38.871Z,71.10
2017-08-20T00:50:06.178Z,71.20
2017-08-20T00:52:34.968Z,71.20
2017-08-20T00:55:01.932Z,70.90
2017-08-20T00:57:28.673Z,71.40
2017-08-20T00:59:55.389Z,71.80
2017-08-20T01:02:21.708Z,72.60
2017-08-20T01:04:48.611Z,72.00
2017-08-20T01:07:15.602Z,71.60
2017-08-20T01:09:42.833Z,71.50
2017-08-20T01:12:10.791Z,71.50
2017-08-20T01:14:37.707Z,71.40
2017-08-20T01:17:04.595Z,71.40
2017-08-20T01:19:31.545Z,71.30
2017-08-20T01:21:57.848Z,71.50
2017-08-20T01:24:25.546Z,71.40
2017-08-20T01:26:51.928Z,71.40
2017-08-20T01:29:19.575Z,72.50
2017-08-20T01:31:47.146Z,71.80
2017-08-20T01:34:13.416Z,71.60
2017-08-20T01:36:39.807Z,71.30
2017-08-20T01:39:06.062Z,71.10
2017-08-20T01:41:32.889Z,71.70
2017-08-20T01:43:59.924Z,72.10
2017-08-20T01:46:26.707Z,72.00
2017-08-20T01:48:52.978Z,72.80
2017-08-20T01:51:19.781Z,71.90
2017-08-20T01:53:46.050Z,72.10
2017-08-20T01:56:12.493Z,72.40
2017-08-20T01:58:40.012Z,74.70
2017-08-20T02:01:06.548Z,74.70
2017-08-20T02:03:32.816Z,74.30
2017-08-20T02:06:00.068Z,74.30
2017-08-20T02:08:26.424Z,73.30
2017-08-20T02:10:53.249Z,73.10
2017-08-20T02:13:20.770Z,72.60
2017-08-20T02:15:47.296Z,72.60
2017-08-20T02:18:14.280Z,72.40
2017-08-20T02:20:40.576Z,72.10
2017-08-20T02:23:07.127Z,71.70
2017-08-20T02:25:33.444Z,71.50
2017-08-20T02:28:00.832Z,71.50
2017-08-20T02:30:27.123Z,71.70
2017-08-20T02:32:53.392Z,71.90
2017-08-20T02:35:21.430Z,72.90
2017-08-20T02:37:47.761Z,72.30
2017-08-20T02:40:15.038Z,72.20
2017-08-20T02:42:41.651Z,72.20
2017-08-20T02:45:07.907Z,71.90
2017-08-20T02:47:34.822Z,71.80
2017-08-20T02:50:01.699Z,71.80
2017-08-20T02:52:28.976Z,72.30
2017-08-20T02:54:55.354Z,72.10
2017-08-20T02:57:23.175Z,71.30
2017-08-20T02:59:49.538Z,71.10
2017-08-20T03:02:16.978Z,71.10
2017-08-20T03:04:45.480Z,71.60
2017-08-20T03:07:11.951Z,72.30
2017-08-20T03:09:39.165Z,71.50
2017-08-20T03:12:05.649Z,71.40
2017-08-20T03:14:32.840Z,71.70
2017-08-20T03:17:00.066Z,71.70
2017-08-20T03:19:26.612Z,71.60
2017-08-20T03:21:54.404Z,71.40
2017-08-20T03:24:20.994Z,71.40
2017-08-20T03:26:47.286Z,71.20
2017-08-20T03:29:13.638Z,72.00
2017-08-20T03:31:41.696Z,72.50
2017-08-20T03:34:08.612Z,72.00
2017-08-20T03:36:35.237Z,71.90
2017-08-20T03:39:01.574Z,72.00
2017-08-20T03:41:28.026Z,71.80
2017-08-20T03:43:54.312Z,71.50
2017-08-20T03:46:21.103Z,71.50
2017-08-20T03:48:49.331Z,71.50
2017-08-20T03:51:15.689Z,71.70
2017-08-20T03:53:42.313Z,71.50
2017-08-20T03:56:09.480Z,71.60
2017-08-20T03:58:36.361Z,71.60
2017-08-20T04:01:02.631Z,71.80
2017-08-20T04:03:29.875Z,72.10
2017-08-20T04:05:56.175Z,72.10
2017-08-20T04:08:22.445Z,72.20
2017-08-20T04:10:48.776Z,72.60
2017-08-20T04:13:15.085Z,72.30
2017-08-20T04:15:41.958Z,72.00
2017-08-20T04:18:08.486Z,72.40
2017-08-20T04:20:35.022Z,72.40
2017-08-20T04:23:01.557Z,72.50
2017-08-20T04:25:29.356Z,72.20
2017-08-20T04:27:55.640Z,72.60
2017-08-20T04:30:22.702Z,72.40
2017-08-20T04:32:49.319Z,72.40
2017-08-20T04:35:16.875Z,72.60
2017-08-20T04:37:43.447Z,72.80
2017-08-20T04:40:10.256Z,72.60
2017-08-20T04:42:37.074Z,72.60
2017-08-20T04:45:03.443Z,72.50
2017-08-20T04:47:31.112Z,73.20
2017-08-20T04:49:58.127Z,72.80
2017-08-20T04:52:24.763Z,72.90
2017-08-20T04:54:51.199Z,73.00
2017-08-20T04:57:17.815Z,73.80
2017-08-20T04:59:44.769Z,74.50
2017-08-20T05:02:11.914Z,73.50
2017-08-20T05:04:38.662Z,74.10
2017-08-20T05:07:04.920Z,73.00
2017-08-20T05:09:31.770Z,73.10
2017-08-20T05:11:59.015Z,73.10
2017-08-20T05:14:26.245Z,73.10
2017-08-20T05:16:53.143Z,69.40
2017-08-20T05:19:20.034Z,69.50
2017-08-20T05:21:47.276Z,70.70
2017-08-20T05:24:14.545Z,71.40
2017-08-20T05:26:41.036Z,70.70
2017-08-20T05:29:08.268Z,69.40
2017-08-20T05:31:35.351Z,70.70
2017-08-20T05:34:03.048Z,68.50
2017-08-20T05:36:29.642Z,68.40
2017-08-20T05:38:55.931Z,68.70
2017-08-20T05:41:22.898Z,67.80
2017-08-20T05:43:49.592Z,65.40
2017-08-20T05:46:16.487Z,65.00
2017-08-20T05:48:44.072Z,60.80
2017-08-20T05:51:10.734Z,63.70
2017-08-20T05:53:37.571Z,61.30
2017-08-20T05:56:03.965Z,58.40
2017-08-20T05:58:30.247Z,59.40
2017-08-20T06:00:57.157Z,57.20
2017-08-20T06:03:23.462Z,57.00
2017-08-20T06:05:50.244Z,55.90
2017-08-20T06:08:16.551Z,57.90
2017-08-20T06:10:43.473Z,56.40
2017-08-20T06:13:10.394Z,55.30
2017-08-20T06:15:37.000Z,57.30
2017-08-20T06:18:03.856Z,54.70
2017-08-20T06:20:30.426Z,57.30
2017-08-20T06:22:57.453Z,54.40
2017-08-20T06:25:23.699Z,54.30
2017-08-20T06:27:50.650Z,51.00
2017-08-20T06:30:17.597Z,52.10
2017-08-20T06:32:44.463Z,53.30
2017-08-20T06:35:11.456Z,52.70
2017-08-20T06:37:37.976Z,52.70
2017-08-20T06:40:04.340Z,52.80
2017-08-20T06:42:30.579Z,51.80
2017-08-20T06:44:56.868Z,50.00
2017-08-20T06:47:23.136Z,52.80
2017-08-20T06:49:49.906Z,53.90
2017-08-20T06:52:16.267Z,52.20
2017-08-20T06:54:42.510Z,48.80
2017-08-20T06:57:08.986Z,50.90
2017-08-20T06:59:36.015Z,53.00
2017-08-20T07:02:02.556Z,53.00
2017-08-20T07:04:28.851Z,51.60
2017-08-20T07:06:55.173Z,52.60
2017-08-20T07:09:21.778Z,52.40
2017-08-20T07:11:48.036Z,51.70
2017-08-20T07:14:14.467Z,50.60
2017-08-20T07:16:41.261Z,51.40
2017-08-20T07:19:08.304Z,50.80
2017-08-20T07:21:36.020Z,50.60
2017-08-20T07:24:02.347Z,50.70
2017-08-20T07:26:28.631Z,49.90
2017-08-20T07:28:56.577Z,49.80
2017-08-20T07:31:22.867Z,49.70
2017-08-20T07:33:50.125Z,48.90
2017-08-20T07:36:17.112Z,49.20
2017-08-20T07:38:43.439Z,50.90
2017-08-20T07:41:10.265Z,50.30
2017-08-20T07:43:43.068Z,49.20
2017-08-20T07:46:09.475Z,48.40
2017-08-20T07:48:36.507Z,49.00
2017-08-20T07:51:02.753Z,48.50
2017-08-20T07:53:29.705Z,48.40
2017-08-20T07:55:56.047Z,48.40
2017-08-20T07:58:22.327Z,48.30
2017-08-20T08:00:49.296Z,48.70
2017-08-20T08:03:15.926Z,48.10
2017-08-20T08:05:43.842Z,47.50
2017-08-20T08:08:10.108Z,47.50
2017-08-20T08:10:36.360Z,47.70
2017-08-20T08:15:35.584Z,47.60
2017-08-20T08:18:02.061Z,47.60
2017-08-20T08:20:29.132Z,49.20
2017-08-20T08:22:55.392Z,49.20
2017-08-20T08:25:22.321Z,49.50
2017-08-20T08:27:48.567Z,50.50
2017-08-20T08:30:15.128Z,50.40
2017-08-20T08:32:42.224Z,51.20
2017-08-20T08:35:09.016Z,51.20
2017-08-20T08:37:36.621Z,48.60
2017-08-20T08:40:02.953Z,48.60
2017-08-20T08:42:29.797Z,47.90
2017-08-20T08:44:56.925Z,49.70
2017-08-20T08:47:23.648Z,49.70
2017-08-20T08:49:51.271Z,49.50
2017-08-20T08:52:18.041Z,49.40
2017-08-20T08:54:45.326Z,49.70
2017-08-20T08:57:12.950Z,48.70
2017-08-20T08:59:40.218Z,48.60
2017-08-20T09:02:07.236Z,50.60
2017-08-20T09:04:33.514Z,50.50
2017-08-20T09:07:00.748Z,49.30
2017-08-20T09:09:26.995Z,49.90
2017-08-20T09:11:53.907Z,50.00
2017-08-20T09:14:21.824Z,47.70
2017-08-20T09:16:48.714Z,47.60
2017-08-20T09:19:14.979Z,48.80
2017-08-20T09:21:41.692Z,49.00
2017-08-20T09:24:08.953Z,47.50
2017-08-20T09:26:36.702Z,47.70
2017-08-20T09:29:03.743Z,47.50
2017-08-20T09:31:30.005Z,47.50
2017-08-20T09:33:56.324Z,46.40
2017-08-20T09:36:22.659Z,46.10
2017-08-20T09:38:50.076Z,46.90
2017-08-20T09:41:16.344Z,47.90
2017-08-20T09:43:42.603Z,48.70
2017-08-20T09:46:08.865Z,47.50
2017-08-20T09:48:35.900Z,48.40
2017-08-20T09:51:03.285Z,47.20
2017-08-20T09:53:30.615Z,46.30
2017-08-20T09:55:56.898Z,46.30
2017-08-20T09:58:23.762Z,44.60
2017-08-20T10:00:51.057Z,44.90
2017-08-20T10:03:18.146Z,45.70
2017-08-20T10:05:45.372Z,45.70
2017-08-20T10:08:13.309Z,44.50
2017-08-20T10:10:40.577Z,44.50
2017-08-20T10:13:08.315Z,45.30
2017-08-20T10:15:35.763Z,43.30
2017-08-20T10:18:02.808Z,44.50
2017-08-20T10:20:30.481Z,41.80
2017-08-20T10:22:57.756Z,42.20
2017-08-20T10:25:25.309Z,42.20
2017-08-20T10:27:52.580Z,44.20
2017-08-20T10:30:20.092Z,45.70
2017-08-20T10:32:46.375Z,45.60
2017-08-20T10:35:13.383Z,43.10
2017-08-20T10:37:39.862Z,43.00
2017-08-20T10:40:06.199Z,42.40
2017-08-20T10:42:33.415Z,43.30
2017-08-20T10:45:00.078Z,41.80
2017-08-20T10:47:27.866Z,41.80
2017-08-20T10:49:55.133Z,41.70
2017-08-20T10:52:21.737Z,42.10
2017-08-20T10:54:48.840Z,41.10
2017-08-20T10:57:16.537Z,41.10
2017-08-20T10:59:43.566Z,41.40
2017-08-20T11:02:11.514Z,43.40
2017-08-20T11:04:38.313Z,43.30
2017-08-20T11:07:05.142Z,41.70
2017-08-20T11:09:32.408Z,41.60
2017-08-20T11:11:58.662Z,42.20
2017-08-20T11:14:25.001Z,39.70
2017-08-20T11:16:51.307Z,40.50
2017-08-20T11:19:17.561Z,40.40
2017-08-20T11:21:44.412Z,39.30
2017-08-20T11:24:11.215Z,38.40
2017-08-20T11:26:39.382Z,38.10
2017-08-20T11:29:06.641Z,38.50
2017-08-20T11:31:32.994Z,39.10
2017-08-20T11:33:59.490Z,37.70
2017-08-20T11:36:26.575Z,38.90
2017-08-20T11:38:52.859Z,38.80
2017-08-20T11:41:19.132Z,38.10
2017-08-20T11:43:45.893Z,37.50
2017-08-20T11:46:12.173Z,37.10
2017-08-20T11:48:38.470Z,37.30
2017-08-20T11:51:05.948Z,38.30
2017-08-20T11:53:33.742Z,39.40
2017-08-20T11:56:00.558Z,40.00
2017-08-20T11:58:27.005Z,39.30
2017-08-20T12:00:54.864Z,38.70
2017-08-20T12:03:22.343Z,39.50
2017-08-20T12:05:48.671Z,39.40
2017-08-20T12:08:15.624Z,38.60
2017-08-20T12:10:41.897Z,36.90
2017-08-20T12:13:08.993Z,38.00
2017-08-20T12:15:35.814Z,38.00
2017-08-20T12:18:02.882Z,38.50
2017-08-20T12:20:29.259Z,38.30
2017-08-20T12:22:56.397Z,38.60
2017-08-20T12:25:24.538Z,38.60
2017-08-20T12:27:50.824Z,39.40
2017-08-20T12:30:18.485Z,38.90
2017-08-20T12:32:47.373Z,39.60
2017-08-20T12:35:13.705Z,39.60
2017-08-20T12:37:41.712Z,40.40
2017-08-20T12:40:08.237Z,40.40
2017-08-20T12:42:34.973Z,39.00
2017-08-20T12:45:01.895Z,39.30
2017-08-20T12:47:28.167Z,39.60
2017-08-20T12:49:54.471Z,40.20
2017-08-20T12:52:21.103Z,39.60
2017-08-20T12:54:48.773Z,38.40
2017-08-20T12:57:15.060Z,38.30
2017-08-20T12:59:41.333Z,38.90
2017-08-20T13:02:08.584Z,38.50
2017-08-20T13:04:35.320Z,39.00
2017-08-20T13:07:03.301Z,39.70
2017-08-20T13:09:31.389Z,38.60
2017-08-20T13:11:58.655Z,38.60
2017-08-20T13:14:25.705Z,38.40
2017-08-20T13:16:52.043Z,39.00
2017-08-20T13:19:18.332Z,37.90
2017-08-20T13:21:44.609Z,36.80
2017-08-20T13:24:11.506Z,36.10
2017-08-20T13:26:39.112Z,38.00
2017-08-20T13:29:05.400Z,38.00
2017-08-20T13:31:31.707Z,36.30
2017-08-20T13:33:58.988Z,35.00
2017-08-20T13:36:25.295Z,36.60
2017-08-20T13:38:52.268Z,36.50
2017-08-20T13:41:18.666Z,37.00
2017-08-20T13:43:45.511Z,37.50
2017-08-20T13:46:12.746Z,36.10
2017-08-20T13:48:39.573Z,35.90
2017-08-20T13:51:06.601Z,36.80
2017-08-20T13:53:32.890Z,36.80
2017-08-20T13:55:59.144Z,37.30
2017-08-20T13:58:25.421Z,35.50
2017-08-20T14:03:25.453Z,37.30
2017-08-20T14:05:52.455Z,33.30
2017-08-20T14:08:18.748Z,33.30
2017-08-20T14:10:45.023Z,34.70
2017-08-20T14:13:11.280Z,36.10
2017-08-20T14:15:38.343Z,35.50
2017-08-20T14:18:05.778Z,35.40
2017-08-20T14:20:33.164Z,36.10
2017-08-20T14:23:00.416Z,36.10
2017-08-20T14:25:26.707Z,37.00
2017-08-20T14:27:52.988Z,37.50
2017-08-20T14:30:20.276Z,36.30
2017-08-20T14:32:47.532Z,35.90
2017-08-20T14:35:14.602Z,35.80
2017-08-20T14:37:41.662Z,37.50
2017-08-20T14:40:07.929Z,37.50
2017-08-20T14:42:35.016Z,37.90
2017-08-20T14:45:01.272Z,38.20
2017-08-20T14:47:27.928Z,39.00
2017-08-20T14:49:54.223Z,39.60
2017-08-20T14:52:20.518Z,39.60
2017-08-20T14:54:46.755Z,40.00
2017-08-20T14:57:13.644Z,40.70
2017-08-20T14:59:40.561Z,41.10
2017-08-20T15:02:07.978Z,40.80
2017-08-20T15:04:34.684Z,40.80
2017-08-20T15:07:00.940Z,40.90
2017-08-20T15:09:27.958Z,40.90
2017-08-20T15:11:54.245Z,39.20
2017-08-20T15:14:20.596Z,39.10
2017-08-20T15:16:47.620Z,39.90
2017-08-20T15:19:13.889Z,39.80
2017-08-20T15:21:40.541Z,40.00
2017-08-20T15:24:06.799Z,40.20
2017-08-20T15:26:33.745Z,40.40
2017-08-20T15:29:00.026Z,40.10
2017-08-20T15:31:26.899Z,40.10
2017-08-20T15:33:54.625Z,40.50
2017-08-20T15:36:21.169Z,41.10
2017-08-20T15:38:47.430Z,41.20
2017-08-20T15:41:13.743Z,40.50
2017-08-20T15:43:40.175Z,39.90
2017-08-20T15:46:06.454Z,40.40
2017-08-20T15:48:33.033Z,39.70
2017-08-20T15:50:59.309Z,39.80
2017-08-20T15:53:25.584Z,39.40
2017-08-20T15:55:52.462Z,40.00
2017-08-20T15:58:18.777Z,40.90
2017-08-20T16:00:45.053Z,40.80
2017-08-20T16:03:11.643Z,40.60
2017-08-20T16:05:38.528Z,40.30
2017-08-20T16:08:04.799Z,40.30
2017-08-20T16:10:31.130Z,40.80
2017-08-20T16:12:57.410Z,41.30
2017-08-20T16:15:24.299Z,40.80
2017-08-20T16:17:50.617Z,40.90
2017-08-20T16:20:17.665Z,41.10
2017-08-20T16:22:45.186Z,41.60
2017-08-20T16:25:11.618Z,41.60
2017-08-20T16:27:38.663Z,41.70
2017-08-20T16:30:04.962Z,41.30
2017-08-20T16:32:31.301Z,41.20
2017-08-20T16:34:58.530Z,41.30
2017-08-20T16:37:25.145Z,40.90
2017-08-20T16:39:52.829Z,40.70
2017-08-20T16:42:20.118Z,40.70
2017-08-20T16:44:46.440Z,40.90
2017-08-20T16:47:12.735Z,41.40
2017-08-20T16:49:39.072Z,41.80
2017-08-20T16:52:05.985Z,40.90
2017-08-20T16:54:33.316Z,41.30
2017-08-20T16:57:00.587Z,41.30
2017-08-20T16:59:27.641Z,40.10
2017-08-20T17:01:54.938Z,40.10
2017-08-20T17:04:21.359Z,39.90
2017-08-20T17:06:48.268Z,40.70
2017-08-20T17:09:15.241Z,41.00
2017-08-20T17:11:42.480Z,40.20
2017-08-20T17:14:08.781Z,40.20
2017-08-20T17:16:36.584Z,41.20
2017-08-20T17:19:03.856Z,41.60
2017-08-20T17:21:31.101Z,41.50
2017-08-20T17:23:58.039Z,42.00
2017-08-20T17:26:24.323Z,43.10
2017-08-20T17:28:50.906Z,43.60
2017-08-20T17:31:17.875Z,42.90
2017-08-20T17:33:44.539Z,42.80
2017-08-20T17:36:11.583Z,43.30
2017-08-20T17:38:38.601Z,43.20
2017-08-20T17:41:05.937Z,42.90
2017-08-20T17:43:32.435Z,43.00
2017-08-20T17:45:59.723Z,42.80
2017-08-20T17:48:25.972Z,43.60
2017-08-20T17:50:53.900Z,44.00
2017-08-20T17:53:20.180Z,45.50
2017-08-20T17:55:46.723Z,45.80
2017-08-20T17:58:13.718Z,46.00
2017-08-20T18:00:40.007Z,48.10
2017-08-20T18:03:06.305Z,48.40
2017-08-20T18:05:32.678Z,48.10
2017-08-20T18:08:00.657Z,49.10
2017-08-20T18:10:29.707Z,49.20
2017-08-20T18:12:56.066Z,49.80
2017-08-20T18:15:22.720Z,50.90
2017-08-20T18:17:49.732Z,50.60
2017-08-20T18:20:15.991Z,50.60
2017-08-20T18:22:42.246Z,51.60
2017-08-20T18:25:08.539Z,51.70
2017-08-20T18:27:34.863Z,52.80
2017-08-20T18:30:01.157Z,52.10
2017-08-20T18:32:27.437Z,52.50
2017-08-20T18:34:54.876Z,52.60
2017-08-20T18:37:21.142Z,52.50
2017-08-20T18:39:47.409Z,52.20
2017-08-20T18:42:13.697Z,53.30
2017-08-20T18:44:39.983Z,52.40
2017-08-20T18:47:06.642Z,52.70
2017-08-20T18:49:35.836Z,53.70
2017-08-20T18:52:02.247Z,53.30
2017-08-20T18:54:28.583Z,53.60
2017-08-20T18:56:54.863Z,56.70
2017-08-20T18:59:22.466Z,54.90
2017-08-20T19:01:52.601Z,54.00
2017-08-20T19:04:21.410Z,57.20
2017-08-20T19:06:53.543Z,57.10
2017-08-20T19:09:21.132Z,57.00
2017-08-20T19:11:47.440Z,56.90
2017-08-20T19:14:13.726Z,55.70
2017-08-20T19:16:39.992Z,54.80
2017-08-20T19:19:06.257Z,55.90
2017-08-20T19:21:32.516Z,56.50
2017-08-20T19:23:59.348Z,57.80
2017-08-20T19:26:27.029Z,55.80
2017-08-20T19:28:53.914Z,57.90
2017-08-20T19:31:20.217Z,56.20
2017-08-20T19:33:47.637Z,55.90
2017-08-20T19:36:14.006Z,56.20
2017-08-20T19:38:41.288Z,57.50
2017-08-20T19:41:09.163Z,57.10
2017-08-20T19:43:38.989Z,56.80
2017-08-20T19:46:06.028Z,57.10
2017-08-20T19:48:34.003Z,57.00
2017-08-20T19:51:08.331Z,57.00
2017-08-20T19:53:34.662Z,56.80
2017-08-20T19:56:01.311Z,56.80
2017-08-20T19:58:27.948Z,57.80
2017-08-20T20:00:54.272Z,57.40
2017-08-20T20:03:21.150Z,56.50
2017-08-20T20:05:48.363Z,57.80
2017-08-20T20:08:15.386Z,57.20
2017-08-20T20:10:41.693Z,57.20
2017-08-20T20:13:10.418Z,58.30
2017-08-20T20:15:36.751Z,57.90
2017-08-20T20:18:03.055Z,58.60
2017-08-20T20:20:30.669Z,57.50
2017-08-20T20:22:57.025Z,57.50
2017-08-20T20:25:23.312Z,57.20
2017-08-20T20:27:50.537Z,58.70
2017-08-20T20:30:18.041Z,58.30
2017-08-20T20:32:45.090Z,58.90
2017-08-20T20:35:12.067Z,58.80
2017-08-20T20:37:39.600Z,59.10
2017-08-20T20:40:05.863Z,59.00
2017-08-20T20:42:32.750Z,58.30
2017-08-20T20:44:59.919Z,58.10
2017-08-20T20:47:26.226Z,58.90
2017-08-20T20:49:52.547Z,58.80
2017-08-20T20:52:19.201Z,58.60
2017-08-20T20:54:45.445Z,58.20
2017-08-20T20:57:12.732Z,59.50
2017-08-20T20:59:39.886Z,60.00
2017-08-20T21:02:06.181Z,59.40
2017-08-20T21:04:32.948Z,58.80
2017-08-20T21:06:59.246Z,59.30
2017-08-20T21:09:26.120Z,59.90
2017-08-20T21:11:53.150Z,60.00
2017-08-20T21:14:20.044Z,60.00
2017-08-20T21:16:46.399Z,60.10
2017-08-20T21:19:13.289Z,61.50
2017-08-20T21:21:40.343Z,63.30
2017-08-20T21:24:07.174Z,62.70
2017-08-20T21:26:34.209Z,62.50
2017-08-20T21:29:01.983Z,62.40
2017-08-20T21:31:30.076Z,62.80
2017-08-20T21:33:56.366Z,62.80
2017-08-20T21:36:22.632Z,61.30
2017-08-20T21:38:48.945Z,62.10
2017-08-20T21:41:16.266Z,62.20
2017-08-20T21:43:43.695Z,62.20
2017-08-20T21:46:10.579Z,62.00
2017-08-20T21:48:37.600Z,60.90
2017-08-20T21:51:03.963Z,60.40
2017-08-20T21:53:30.807Z,60.20
2017-08-20T21:55:58.023Z,60.70
2017-08-20T21:58:24.925Z,60.30
2017-08-20T22:00:52.887Z,60.10
2017-08-20T22:03:19.910Z,60.40
2017-08-20T22:05:46.205Z,60.40
2017-08-20T22:08:12.670Z,60.00
2017-08-20T22:10:38.987Z,59.80
2017-08-20T22:13:05.266Z,60.30
2017-08-20T22:15:32.207Z,61.30
2017-08-20T22:17:59.221Z,60.50
2017-08-20T22:20:25.766Z,60.50
2017-08-20T22:22:52.641Z,60.90
2017-08-20T22:25:20.297Z,60.40
2017-08-20T22:27:46.670Z,59.80
2017-08-20T22:30:13.590Z,59.70
2017-08-20T22:32:41.104Z,59.60
2017-08-20T22:35:07.901Z,59.60
2017-08-20T22:37:34.208Z,60.10
2017-08-20T22:40:00.985Z,60.40
2017-08-20T22:42:27.290Z,60.00
2017-08-20T22:44:53.548Z,60.40
2017-08-20T22:47:20.157Z,60.40
2017-08-20T22:49:47.105Z,61.20
2017-08-20T22:52:13.372Z,60.80
2017-08-20T22:54:39.680Z,61.00
2017-08-20T22:57:06.134Z,60.90
2017-08-20T22:59:32.451Z,60.40
2017-08-20T23:01:58.724Z,60.70
2017-08-20T23:04:25.993Z,60.10
2017-08-20T23:06:52.277Z,60.10
2017-08-20T23:09:18.613Z,60.00
2017-08-20T23:11:45.635Z,61.60
2017-08-20T23:14:12.799Z,61.50
2017-08-20T23:16:39.769Z,60.90
2017-08-20T23:19:07.525Z,61.50
2017-08-20T23:21:33.877Z,60.70
2017-08-20T23:24:01.147Z,61.20
2017-08-20T23:26:27.422Z,60.40
2017-08-20T23:28:53.727Z,60.60
2017-08-20T23:31:20.524Z,61.50
2017-08-20T23:33:47.549Z,60.50
2017-08-20T23:36:13.857Z,60.50
2017-08-20T23:38:41.244Z,60.70
2017-08-20T23:41:08.299Z,61.00
2017-08-20T23:43:35.315Z,61.40
2017-08-20T23:46:01.731Z,61.30
2017-08-20T23:48:28.305Z,61.40
2017-08-20T23:50:55.664Z,61.50
2017-08-20T23:53:23.731Z,61.00
2017-08-20T23:55:51.711Z,60.80
2017-08-20T23:58:19.316Z,61.20
